Time;durP1;ratioP1;P1;durP2;ratioP2;P2;SDS_P1;SDS_P2;PMS_P1;PMS_P2;Temp;Humidity;BMP_temperature;BMP_pressure;BME280_temperature;BME280_humidity;BME280_pressure;Samples;Min_cycle;Max_cycle;Signal;HPM_P1;HPM_P2
2023/07/23 00:00:56;;;;;;;;;;;15.80;99.90;;;;;;5033251;28;19921;-85
2023/07/23 00:03:21;;;;;;;;;;;15.80;99.90;;;;;;5047233;28;20400;-85
2023/07/23 00:05:47;;;;;;;;;;;15.80;99.90;;;;;;5032483;28;19917;-85
2023/07/23 00:08:13;;;;;;;;;;;15.80;99.90;;;;;;5043469;28;20054;-86
2023/07/23 00:10:39;;;;;;;;;;;15.90;99.90;;;;;;5035127;28;19917;-86
2023/07/23 00:13:04;;;;;;;;;;;15.90;99.90;;;;;;5033601;28;19996;-87
2023/07/23 00:15:30;;;;;;;;;;;15.90;99.90;;;;;;5032711;28;20252;-86
2023/07/23 00:17:58;;;;;;;;;;;15.90;99.90;;;;;;5031922;28;21935;-86
2023/07/23 00:20:23;;;;;;;;;;;15.90;99.90;;;;;;5047300;28;19947;-86
2023/07/23 00:22:49;;;;;;;;;;;15.90;99.90;;;;;;5033628;28;20366;-85
2023/07/23 00:25:14;;;;;;;;;;;15.90;99.90;;;;;;5032902;28;20710;-86
2023/07/23 00:27:40;;;;;;;;;;;16.00;99.90;;;;;;5051137;28;19928;-86
2023/07/23 00:30:05;;;;;;;;;;;15.90;99.90;;;;;;5035333;28;20003;-87
2023/07/23 00:32:31;;;;;;;;;;;15.90;99.90;;;;;;5051659;28;19973;-86
2023/07/23 00:34:56;;;;;;;;;;;15.90;99.90;;;;;;5053005;28;19917;-86
2023/07/23 00:37:22;;;;;;;;;;;15.80;99.90;;;;;;5037236;28;19929;-85
2023/07/23 00:39:47;;;;;;;;;;;15.80;99.90;;;;;;5052210;28;20012;-86
2023/07/23 00:42:13;;;;;;;;;;;15.80;99.90;;;;;;5036751;28;19996;-86
2023/07/23 00:44:38;;;;;;;;;;;15.70;99.90;;;;;;5035958;28;19951;-85
2023/07/23 00:47:05;;;;;;;;;;;15.60;99.90;;;;;;5035029;28;19931;-85
2023/07/23 00:49:31;;;;;;;;;;;15.60;99.90;;;;;;5050668;28;20250;-85
2023/07/23 00:51:56;;;;;;;;;;;15.60;99.90;;;;;;5035894;28;19917;-84
2023/07/23 00:54:23;;;;;;;;;;;15.70;99.90;;;;;;5051188;28;19912;-85
2023/07/23 00:56:48;;;;;;;;;;;15.60;99.90;;;;;;5036002;28;19932;-86
2023/07/23 00:59:14;;;;;;;;;;;15.60;99.90;;;;;;5050551;28;19917;-86
2023/07/23 01:01:39;;;;;;;;;;;15.60;99.90;;;;;;5035551;28;19916;-86
2023/07/23 01:04:05;;;;;;;;;;;15.70;99.90;;;;;;5035594;28;19916;-86
2023/07/23 01:06:32;;;;;;;;;;;15.60;99.90;;;;;;5035054;28;20390;-85
2023/07/23 01:08:58;;;;;;;;;;;15.70;99.90;;;;;;5052617;28;19963;-86
2023/07/23 01:11:24;;;;;;;;;;;15.70;99.90;;;;;;5043565;28;19967;-85
2023/07/23 01:13:51;;;;;;;;;;;15.60;99.90;;;;;;5050539;28;19971;-84
2023/07/23 01:16:17;;;;;;;;;;;15.70;99.90;;;;;;5033518;28;19921;-84
2023/07/23 01:18:43;;;;;;;;;;;15.60;99.90;;;;;;5044753;28;19923;-86
2023/07/23 01:21:10;;;;;;;;;;;15.70;99.90;;;;;;5036239;28;19923;-85
2023/07/23 01:23:36;;;;;;;;;;;15.70;99.90;;;;;;5035561;28;21007;-85
2023/07/23 01:26:02;;;;;;;;;;;15.70;99.90;;;;;;5035696;28;19928;-86
2023/07/23 01:28:28;;;;;;;;;;;15.70;99.90;;;;;;5049177;28;20016;-85
2023/07/23 01:30:54;;;;;;;;;;;15.70;99.90;;;;;;5034354;28;20016;-84
2023/07/23 01:33:20;;;;;;;;;;;15.70;99.90;;;;;;5050241;28;19916;-86
2023/07/23 01:35:45;;;;;;;;;;;15.70;99.90;;;;;;5044874;28;19921;-87
2023/07/23 01:38:12;;;;;;;;;;;15.70;99.90;;;;;;5050140;28;20349;-86
2023/07/23 01:40:40;;;;;;;;;;;15.70;99.90;;;;;;5050142;28;19920;-86
2023/07/23 01:43:06;;;;;;;;;;;15.70;99.90;;;;;;5050724;28;20348;-86
2023/07/23 01:45:31;;;;;;;;;;;15.80;99.90;;;;;;5049872;28;19917;-85
2023/07/23 01:47:57;;;;;;;;;;;15.80;99.90;;;;;;5044865;28;19990;-85
2023/07/23 01:50:23;;;;;;;;;;;15.80;99.90;;;;;;5035831;28;20011;-86
2023/07/23 01:52:48;;;;;;;;;;;15.80;99.90;;;;;;5037176;28;19984;-86
2023/07/23 01:55:14;;;;;;;;;;;15.80;99.90;;;;;;5050424;28;19924;-87
2023/07/23 01:57:39;;;;;;;;;;;15.80;99.90;;;;;;5036620;28;20070;-86
2023/07/23 02:00:05;;;;;;;;;;;15.80;99.90;;;;;;5038651;28;19921;-86
2023/07/23 02:02:30;;;;;;;;;;;15.80;99.90;;;;;;5050462;28;19916;-85
2023/07/23 02:04:56;;;;;;;;;;;15.80;99.90;;;;;;5035159;28;19924;-85
2023/07/23 02:07:22;;;;;;;;;;;15.70;99.90;;;;;;5035419;28;19917;-85
2023/07/23 02:09:50;;;;;;;;;;;15.70;99.90;;;;;;5036077;28;19963;-85
2023/07/23 02:12:16;;;;;;;;;;;15.70;99.90;;;;;;5050649;28;19939;-85
2023/07/23 02:14:41;;;;;;;;;;;15.70;99.90;;;;;;5040567;28;19917;-84
2023/07/23 02:17:07;;;;;;;;;;;15.60;99.90;;;;;;5038033;28;19921;-85
2023/07/23 02:19:32;;;;;;;;;;;15.60;99.90;;;;;;5050825;28;19917;-84
2023/07/23 02:21:58;;;;;;;;;;;15.60;99.90;;;;;;5045987;28;19913;-84
2023/07/23 02:24:23;;;;;;;;;;;15.50;99.90;;;;;;5032852;28;19917;-84
2023/07/23 02:26:49;;;;;;;;;;;15.60;99.90;;;;;;5031761;28;19921;-85
2023/07/23 02:29:14;;;;;;;;;;;15.60;99.90;;;;;;5033413;28;20871;-85
2023/07/23 02:31:41;;;;;;;;;;;15.60;99.90;;;;;;5033936;28;19924;-85
2023/07/23 02:34:06;;;;;;;;;;;15.60;99.90;;;;;;5044425;28;19920;-85
2023/07/23 02:36:32;;;;;;;;;;;15.50;99.90;;;;;;5050208;28;20533;-85
2023/07/23 02:38:57;;;;;;;;;;;15.60;99.90;;;;;;5043976;28;19966;-84
2023/07/23 02:41:23;;;;;;;;;;;15.60;99.90;;;;;;5049214;28;20000;-84
2023/07/23 02:43:48;;;;;;;;;;;15.60;99.90;;;;;;5034599;28;20370;-86
2023/07/23 02:46:14;;;;;;;;;;;15.60;99.90;;;;;;5033549;28;19967;-84
2023/07/23 02:48:39;;;;;;;;;;;15.60;99.90;;;;;;5034105;28;20429;-85
2023/07/23 02:51:05;;;;;;;;;;;15.60;99.90;;;;;;5035079;28;19921;-85
2023/07/23 02:53:30;;;;;;;;;;;15.60;99.90;;;;;;5035813;28;19920;-86
2023/07/23 02:55:56;;;;;;;;;;;15.60;99.90;;;;;;5042901;28;19917;-86
2023/07/23 02:58:21;;;;;;;;;;;15.60;99.90;;;;;;5044579;28;19913;-85
2023/07/23 03:00:47;;;;;;;;;;;15.60;99.90;;;;;;5038430;28;19978;-84
2023/07/23 03:03:12;;;;;;;;;;;15.60;99.90;;;;;;5033910;28;19939;-85
2023/07/23 03:05:38;;;;;;;;;;;15.60;99.90;;;;;;5034309;28;19917;-85
2023/07/23 03:08:03;;;;;;;;;;;15.60;99.90;;;;;;5035549;28;19929;-86
2023/07/23 03:10:29;;;;;;;;;;;15.70;99.90;;;;;;5032917;28;19976;-85
2023/07/23 03:12:56;;;;;;;;;;;15.70;99.90;;;;;;5033990;28;19928;-85
2023/07/23 03:15:22;;;;;;;;;;;15.70;99.90;;;;;;5032930;28;19931;-86
2023/07/23 03:17:48;;;;;;;;;;;15.70;99.90;;;;;;5049554;28;19917;-85
2023/07/23 03:20:14;;;;;;;;;;;15.70;99.90;;;;;;5033366;28;20054;-85
2023/07/23 03:22:40;;;;;;;;;;;15.70;99.90;;;;;;5033524;28;20370;-86
2023/07/23 03:25:05;;;;;;;;;;;15.70;99.90;;;;;;5033490;28;19970;-85
2023/07/23 03:27:31;;;;;;;;;;;15.70;99.90;;;;;;5047407;28;19925;-85
2023/07/23 03:29:56;;;;;;;;;;;15.70;99.90;;;;;;5032720;28;19928;-86
2023/07/23 03:32:22;;;;;;;;;;;15.70;99.90;;;;;;5033444;28;19917;-85
2023/07/23 03:34:48;;;;;;;;;;;15.70;99.90;;;;;;5034191;28;19920;-85
2023/07/23 03:37:13;;;;;;;;;;;15.70;99.90;;;;;;5050068;28;19924;-85
2023/07/23 03:39:39;;;;;;;;;;;15.80;99.90;;;;;;5032612;28;20016;-85
2023/07/23 03:42:06;;;;;;;;;;;15.80;99.90;;;;;;5043682;28;20359;-84
2023/07/23 03:44:32;;;;;;;;;;;15.80;99.90;;;;;;5048625;28;20363;-85
2023/07/23 03:47:03;;;;;;;;;;;15.80;99.90;;;;;;5049005;28;19920;-84
2023/07/23 03:49:29;;;;;;;;;;;15.80;99.90;;;;;;5049508;28;20416;-85
2023/07/23 03:51:54;;;;;;;;;;;15.80;99.90;;;;;;5034933;28;19924;-85
2023/07/23 03:54:20;;;;;;;;;;;15.80;99.90;;;;;;5032665;28;19920;-87
2023/07/23 03:56:45;;;;;;;;;;;15.80;99.90;;;;;;5032318;28;20512;-86
2023/07/23 03:59:11;;;;;;;;;;;15.80;99.90;;;;;;5034129;28;20058;-85
2023/07/23 04:01:36;;;;;;;;;;;15.80;99.90;;;;;;5036304;28;20011;-85
2023/07/23 04:04:02;;;;;;;;;;;15.80;99.90;;;;;;5070294;28;19923;-84
2023/07/23 04:06:27;;;;;;;;;;;15.80;99.90;;;;;;5036966;28;19924;-85
2023/07/23 04:08:53;;;;;;;;;;;15.90;99.90;;;;;;5070919;28;19929;-86
2023/07/23 04:11:18;;;;;;;;;;;15.90;99.90;;;;;;5037500;28;19912;-85
2023/07/23 04:13:44;;;;;;;;;;;16.00;99.90;;;;;;5038111;28;20399;-84
2023/07/23 04:16:10;;;;;;;;;;;16.00;99.90;;;;;;5036796;28;19921;-85
2023/07/23 04:18:46;;;;;;;;;;;16.00;99.90;;;;;;5070074;28;19957;-86
2023/07/23 04:21:12;;;;;;;;;;;16.10;99.90;;;;;;5052534;28;19916;-84
2023/07/23 04:23:38;;;;;;;;;;;16.00;99.90;;;;;;5038916;28;19921;-85
2023/07/23 04:26:03;;;;;;;;;;;16.10;99.90;;;;;;5037028;28;20402;-86
2023/07/23 04:28:29;;;;;;;;;;;16.10;99.90;;;;;;5036023;28;20054;-88
2023/07/23 04:30:54;;;;;;;;;;;16.10;99.90;;;;;;5035762;28;19996;-87
2023/07/23 04:33:20;;;;;;;;;;;16.10;99.90;;;;;;5036751;28;20416;-86
2023/07/23 04:35:45;;;;;;;;;;;16.10;99.90;;;;;;5053615;28;19916;-87
2023/07/23 04:38:11;;;;;;;;;;;16.20;99.90;;;;;;5051872;28;19916;-86
2023/07/23 04:40:36;;;;;;;;;;;16.20;99.90;;;;;;5045714;28;19991;-86
2023/07/23 04:43:03;;;;;;;;;;;16.20;99.90;;;;;;5036506;28;19917;-85
2023/07/23 04:45:29;;;;;;;;;;;16.20;99.90;;;;;;5035041;28;19925;-86
2023/07/23 04:47:55;;;;;;;;;;;16.20;99.90;;;;;;5038488;28;19928;-86
2023/07/23 04:50:20;;;;;;;;;;;16.20;99.90;;;;;;5037668;28;19913;-85
2023/07/23 04:52:46;;;;;;;;;;;16.30;99.90;;;;;;5035095;28;19927;-87
2023/07/23 04:55:11;;;;;;;;;;;16.30;99.90;;;;;;5035689;28;20020;-86
2023/07/23 04:57:38;;;;;;;;;;;16.30;99.90;;;;;;5037690;28;20015;-87
2023/07/23 05:00:06;;;;;;;;;;;16.30;99.90;;;;;;5044935;28;19943;-87
2023/07/23 05:02:32;;;;;;;;;;;16.40;99.90;;;;;;5037899;28;19939;-86
2023/07/23 05:04:57;;;;;;;;;;;16.40;99.90;;;;;;5047771;28;20481;-85
2023/07/23 05:07:23;;;;;;;;;;;16.40;99.90;;;;;;5034323;28;19921;-85
2023/07/23 05:09:48;;;;;;;;;;;16.40;99.90;;;;;;5035926;28;19925;-87
2023/07/23 05:12:14;;;;;;;;;;;16.50;99.90;;;;;;5035591;28;20140;-84
2023/07/23 05:14:39;;;;;;;;;;;16.50;99.90;;;;;;5052218;28;19917;-85
2023/07/23 05:17:06;;;;;;;;;;;16.50;99.90;;;;;;5048254;28;19923;-85
2023/07/23 05:19:32;;;;;;;;;;;16.60;99.90;;;;;;5036156;28;19917;-86
2023/07/23 05:21:57;;;;;;;;;;;16.50;99.90;;;;;;5049966;28;19920;-86
2023/07/23 05:24:22;;;;;;;;;;;16.60;99.90;;;;;;5035956;28;19917;-86
2023/07/23 05:26:48;;;;;;;;;;;16.60;99.90;;;;;;5052038;28;20363;-84
2023/07/23 05:29:13;;;;;;;;;;;16.60;99.90;;;;;;5036392;28;19985;-85
2023/07/23 05:31:39;;;;;;;;;;;16.60;99.90;;;;;;5036595;28;20455;-86
2023/07/23 05:34:05;;;;;;;;;;;16.60;99.90;;;;;;5036012;28;20416;-86
2023/07/23 05:36:30;;;;;;;;;;;16.60;99.90;;;;;;5035523;28;19923;-86
2023/07/23 05:38:55;;;;;;;;;;;16.60;99.90;;;;;;5050651;28;19978;-86
2023/07/23 05:41:21;;;;;;;;;;;16.50;99.90;;;;;;5050194;28;20035;-86
2023/07/23 05:43:46;;;;;;;;;;;16.50;99.90;;;;;;5035350;28;22229;-86
2023/07/23 05:46:12;;;;;;;;;;;16.50;99.90;;;;;;5036604;28;19964;-86
2023/07/23 05:48:37;;;;;;;;;;;16.50;99.90;;;;;;5037584;28;19947;-87
2023/07/23 05:51:03;;;;;;;;;;;16.50;99.90;;;;;;5036452;28;19912;-86
2023/07/23 05:53:30;;;;;;;;;;;16.40;99.90;;;;;;5034815;28;20012;-86
2023/07/23 05:55:55;;;;;;;;;;;16.40;99.90;;;;;;5034762;28;19978;-84
2023/07/23 05:58:21;;;;;;;;;;;16.30;99.90;;;;;;5050928;28;19913;-86
2023/07/23 06:00:46;;;;;;;;;;;16.30;99.90;;;;;;5053671;28;19923;-87
2023/07/23 06:03:12;;;;;;;;;;;16.20;99.90;;;;;;5046436;28;19921;-85
2023/07/23 06:05:37;;;;;;;;;;;16.10;99.90;;;;;;5035282;28;19946;-85
2023/07/23 06:08:03;;;;;;;;;;;16.10;99.90;;;;;;5033890;28;19931;-87
2023/07/23 06:10:28;;;;;;;;;;;16.00;99.90;;;;;;5036824;28;19978;-86
2023/07/23 06:12:54;;;;;;;;;;;15.90;99.90;;;;;;5036205;28;19917;-85
2023/07/23 06:15:20;;;;;;;;;;;15.90;99.90;;;;;;5033578;28;19917;-85
2023/07/23 06:17:45;;;;;;;;;;;15.90;99.90;;;;;;5033755;28;19940;-86
2023/07/23 06:20:11;;;;;;;;;;;16.00;99.90;;;;;;5036553;28;20280;-85
2023/07/23 06:22:36;;;;;;;;;;;16.00;99.90;;;;;;5048823;28;19959;-86
2023/07/23 06:25:02;;;;;;;;;;;16.10;99.90;;;;;;5053754;28;19967;-86
2023/07/23 06:27:28;;;;;;;;;;;16.10;99.90;;;;;;5035203;28;19956;-85
2023/07/23 06:29:53;;;;;;;;;;;16.20;99.90;;;;;;5034127;28;19929;-85
2023/07/23 06:32:19;;;;;;;;;;;16.20;99.90;;;;;;5044941;28;19917;-85
2023/07/23 06:34:44;;;;;;;;;;;16.30;99.90;;;;;;5035970;28;20420;-86
2023/07/23 06:37:09;;;;;;;;;;;16.30;99.90;;;;;;5035628;28;19924;-85
2023/07/23 06:39:35;;;;;;;;;;;16.30;99.90;;;;;;5036107;28;19921;-85
2023/07/23 06:42:01;;;;;;;;;;;16.30;99.90;;;;;;5034149;28;19924;-85
2023/07/23 06:44:26;;;;;;;;;;;16.40;99.90;;;;;;5053873;28;20283;-87
2023/07/23 06:46:52;;;;;;;;;;;16.40;99.90;;;;;;5035342;28;19995;-87
2023/07/23 06:49:18;;;;;;;;;;;16.50;99.90;;;;;;5045788;28;20005;-86
2023/07/23 06:51:43;;;;;;;;;;;16.50;99.90;;;;;;5034016;28;20476;-88
2023/07/23 06:54:09;;;;;;;;;;;16.40;99.90;;;;;;5033877;28;19936;-88
2023/07/23 06:56:35;;;;;;;;;;;16.40;99.90;;;;;;5040494;28;20012;-86
2023/07/23 06:59:00;;;;;;;;;;;16.20;99.90;;;;;;5035613;28;19917;-86
2023/07/23 07:01:26;;;;;;;;;;;16.10;99.90;;;;;;5049896;28;19963;-85
2023/07/23 07:03:51;;;;;;;;;;;16.00;99.90;;;;;;5035538;28;19920;-85
2023/07/23 07:06:17;;;;;;;;;;;15.90;99.90;;;;;;5032798;28;19913;-85
2023/07/23 07:08:44;;;;;;;;;;;15.80;99.90;;;;;;5033357;28;19925;-86
2023/07/23 07:11:10;;;;;;;;;;;15.80;99.90;;;;;;5033340;28;20329;-85
2023/07/23 07:13:35;;;;;;;;;;;15.80;99.90;;;;;;5048241;28;19917;-84
2023/07/23 07:16:01;;;;;;;;;;;15.70;99.90;;;;;;5049965;28;19941;-85
2023/07/23 07:18:26;;;;;;;;;;;15.70;99.90;;;;;;5049085;28;20059;-85
2023/07/23 07:20:53;;;;;;;;;;;15.70;99.90;;;;;;5032541;28;19921;-86
2023/07/23 07:23:18;;;;;;;;;;;15.70;99.90;;;;;;5047888;28;19999;-85
2023/07/23 07:25:43;;;;;;;;;;;15.70;99.90;;;;;;5042045;28;20493;-86
2023/07/23 07:28:09;;;;;;;;;;;15.60;99.90;;;;;;5032260;28;19925;-88
2023/07/23 07:30:39;;;;;;;;;;;15.50;99.90;;;;;;5050454;28;20543;-90
2023/07/23 07:33:04;;;;;;;;;;;15.60;99.90;;;;;;5052030;28;19921;-86
2023/07/23 07:35:29;;;;;;;;;;;15.50;99.90;;;;;;5036338;28;20255;-86
2023/07/23 07:37:55;;;;;;;;;;;15.50;99.90;;;;;;5034961;28;19917;-85
2023/07/23 07:40:20;;;;;;;;;;;15.50;99.90;;;;;;5037609;28;19940;-87
2023/07/23 07:42:46;;;;;;;;;;;15.50;99.90;;;;;;5051812;28;20362;-86
2023/07/23 07:45:11;;;;;;;;;;;15.50;99.90;;;;;;5051624;28;19927;-86
2023/07/23 07:47:37;;;;;;;;;;;15.60;99.90;;;;;;5037663;28;19921;-85
2023/07/23 07:50:04;;;;;;;;;;;15.60;99.90;;;;;;5034827;28;19994;-85
2023/07/23 07:52:30;;;;;;;;;;;15.50;99.90;;;;;;5044978;28;19924;-86
2023/07/23 07:54:55;;;;;;;;;;;15.50;99.90;;;;;;5051375;28;19917;-85
2023/07/23 07:57:21;;;;;;;;;;;15.50;99.90;;;;;;5035073;28;20002;-86
2023/07/23 07:59:47;;;;;;;;;;;15.60;99.90;;;;;;5053527;28;20039;-86
2023/07/23 08:02:12;;;;;;;;;;;15.60;99.90;;;;;;5052605;28;20368;-84
2023/07/23 08:04:38;;;;;;;;;;;15.50;99.90;;;;;;5034734;28;19932;-85
2023/07/23 08:07:04;;;;;;;;;;;15.60;99.90;;;;;;5044629;28;19921;-85
2023/07/23 08:09:30;;;;;;;;;;;15.50;99.90;;;;;;5053766;28;19921;-86
2023/07/23 08:11:56;;;;;;;;;;;15.50;99.90;;;;;;5047882;28;20331;-86
2023/07/23 08:14:21;;;;;;;;;;;15.50;99.90;;;;;;5038442;28;20007;-86
2023/07/23 08:16:49;;;;;;;;;;;15.50;99.90;;;;;;5037625;28;19928;-86
2023/07/23 08:19:15;;;;;;;;;;;15.50;99.90;;;;;;5049370;28;19924;-85
2023/07/23 08:21:42;;;;;;;;;;;15.60;99.90;;;;;;5051138;28;19916;-84
2023/07/23 08:24:07;;;;;;;;;;;15.60;99.90;;;;;;5034449;28;19920;-86
2023/07/23 08:26:34;;;;;;;;;;;15.70;99.90;;;;;;5035552;28;19974;-86
2023/07/23 08:29:02;;;;;;;;;;;15.70;99.90;;;;;;5037538;28;19986;-86
2023/07/23 08:31:28;;;;;;;;;;;15.70;99.90;;;;;;5036295;28;19932;-86
2023/07/23 08:33:54;;;;;;;;;;;15.70;99.90;;;;;;5043520;28;19920;-86
2023/07/23 08:36:20;;;;;;;;;;;15.80;99.90;;;;;;5050233;28;19924;-87
2023/07/23 08:38:45;;;;;;;;;;;15.80;99.90;;;;;;5042766;28;19921;-86
2023/07/23 08:41:26;;;;;;;;;;;15.70;99.90;;;;;;5035792;28;20020;-87
2023/07/23 08:44:14;;;;;;;;;;;15.80;99.90;;;;;;5051650;28;19917;-87
2023/07/23 08:46:46;;;;;;;;;;;15.80;99.90;;;;;;5035066;28;20019;-86
2023/07/23 08:49:12;;;;;;;;;;;15.80;99.90;;;;;;5049589;28;19928;-86
2023/07/23 08:51:43;;;;;;;;;;;15.80;99.90;;;;;;5034555;28;19917;-86
2023/07/23 08:54:09;;;;;;;;;;;15.80;99.90;;;;;;5050449;28;19977;-88
2023/07/23 08:56:35;;;;;;;;;;;15.90;99.90;;;;;;5043450;28;19952;-88
2023/07/23 08:59:01;;;;;;;;;;;15.90;99.90;;;;;;5037130;28;19917;-85
2023/07/23 09:01:28;;;;;;;;;;;16.00;99.90;;;;;;5038778;28;19952;-86
2023/07/23 09:03:53;;;;;;;;;;;16.10;99.90;;;;;;5043046;28;19995;-87
2023/07/23 09:06:19;;;;;;;;;;;16.20;99.90;;;;;;5040083;28;20016;-85
2023/07/23 09:08:45;;;;;;;;;;;16.20;99.90;;;;;;5034467;28;19932;-84
2023/07/23 09:11:10;;;;;;;;;;;16.30;99.90;;;;;;5049912;28;20721;-86
2023/07/23 09:13:36;;;;;;;;;;;16.40;99.90;;;;;;5049760;28;19924;-86
2023/07/23 09:16:02;;;;;;;;;;;16.40;99.90;;;;;;5043553;28;20367;-87
2023/07/23 09:18:27;;;;;;;;;;;16.50;99.90;;;;;;5044462;28;19917;-87
2023/07/23 09:20:53;;;;;;;;;;;16.60;99.90;;;;;;5034336;28;19966;-84
2023/07/23 09:23:19;;;;;;;;;;;16.70;99.90;;;;;;5049668;28;19916;-86
2023/07/23 09:25:44;;;;;;;;;;;16.70;99.90;;;;;;5033219;28;19924;-85
2023/07/23 09:28:22;;;;;;;;;;;16.70;99.90;;;;;;5050973;28;19932;-85
2023/07/23 09:30:48;;;;;;;;;;;16.80;99.90;;;;;;5040405;28;19924;-85
2023/07/23 09:33:14;;;;;;;;;;;16.80;99.90;;;;;;5029436;28;19916;-85
2023/07/23 09:35:41;;;;;;;;;;;16.80;99.90;;;;;;5042671;28;19928;-86
2023/07/23 09:38:10;;;;;;;;;;;16.90;99.90;;;;;;5034534;28;19921;-85
2023/07/23 09:40:37;;;;;;;;;;;16.90;99.90;;;;;;5048373;28;19967;-85
2023/07/23 09:43:02;;;;;;;;;;;16.90;99.90;;;;;;5033850;28;19923;-84
2023/07/23 09:45:34;;;;;;;;;;;16.90;99.90;;;;;;5047421;28;19917;-86
2023/07/23 09:48:01;;;;;;;;;;;17.00;99.90;;;;;;5030726;28;19966;-85
2023/07/23 09:50:26;;;;;;;;;;;17.00;99.90;;;;;;5031619;28;19924;-85
2023/07/23 09:52:52;;;;;;;;;;;17.00;99.90;;;;;;5048065;28;19920;-86
2023/07/23 09:55:19;;;;;;;;;;;17.10;99.90;;;;;;5033747;28;20512;-87
2023/07/23 09:57:47;;;;;;;;;;;17.10;99.90;;;;;;5038162;28;20398;-86
2023/07/23 10:00:13;;;;;;;;;;;17.10;99.90;;;;;;5030791;28;19917;-85
2023/07/23 10:02:39;;;;;;;;;;;17.10;99.90;;;;;;5041843;28;19917;-85
2023/07/23 10:05:06;;;;;;;;;;;17.10;99.90;;;;;;5047305;28;20584;-84
2023/07/23 10:07:32;;;;;;;;;;;17.10;99.90;;;;;;5029844;28;19978;-83
2023/07/23 10:09:59;;;;;;;;;;;17.10;99.90;;;;;;5033354;28;19921;-85
2023/07/23 10:12:24;;;;;;;;;;;17.20;99.90;;;;;;5049520;28;20012;-84
2023/07/23 10:14:50;;;;;;;;;;;17.20;99.90;;;;;;5032702;28;20011;-84
2023/07/23 10:17:16;;;;;;;;;;;17.20;99.90;;;;;;5032710;28;20367;-84
2023/07/23 10:19:42;;;;;;;;;;;17.10;99.90;;;;;;5032551;28;20439;-84
2023/07/23 10:22:07;;;;;;;;;;;17.10;99.90;;;;;;5033525;28;19917;-83
2023/07/23 10:24:36;;;;;;;;;;;17.10;99.90;;;;;;5032980;28;19928;-84
2023/07/23 10:27:09;;;;;;;;;;;17.10;99.90;;;;;;5034350;28;19953;-84
2023/07/23 10:29:34;;;;;;;;;;;16.90;99.90;;;;;;5031881;28;19925;-84
2023/07/23 10:32:18;;;;;;;;;;;16.90;99.90;;;;;;5050351;28;20465;-85
2023/07/23 10:34:44;;;;;;;;;;;16.90;99.90;;;;;;5032685;28;19959;-84
2023/07/23 10:37:14;;;;;;;;;;;16.90;99.90;;;;;;5043203;28;20008;-88
2023/07/23 10:39:40;;;;;;;;;;;16.90;99.90;;;;;;5038210;28;20371;-84
2023/07/23 10:42:06;;;;;;;;;;;16.80;99.90;;;;;;5050872;28;19920;-83
2023/07/23 10:44:31;;;;;;;;;;;16.80;99.90;;;;;;5035963;28;19913;-85
2023/07/23 10:46:57;;;;;;;;;;;16.70;99.90;;;;;;5035100;28;19921;-85
2023/07/23 10:49:26;;;;;;;;;;;16.70;99.90;;;;;;5050789;28;20385;-85
2023/07/23 10:51:52;;;;;;;;;;;16.70;99.90;;;;;;5033919;28;20600;-87
2023/07/23 10:54:19;;;;;;;;;;;16.70;99.90;;;;;;5035874;28;19927;-84
2023/07/23 10:56:44;;;;;;;;;;;16.70;99.90;;;;;;5050244;28;19924;-84
2023/07/23 10:59:13;;;;;;;;;;;16.60;99.90;;;;;;5048774;28;20398;-83
2023/07/23 11:01:45;;;;;;;;;;;16.60;99.90;;;;;;5049235;28;19917;-85
2023/07/23 11:04:11;;;;;;;;;;;16.60;99.90;;;;;;5050192;28;19920;-85
2023/07/23 11:06:37;;;;;;;;;;;16.70;99.90;;;;;;5034237;28;20533;-85
2023/07/23 11:09:10;;;;;;;;;;;16.60;99.90;;;;;;5033363;28;20295;-86
2023/07/23 11:11:40;;;;;;;;;;;16.60;99.90;;;;;;5051441;28;19917;-85
2023/07/23 11:14:16;;;;;;;;;;;16.60;99.90;;;;;;5049438;28;19913;-84
2023/07/23 11:16:42;;;;;;;;;;;16.60;99.90;;;;;;5034302;28;19917;-84
2023/07/23 11:19:07;;;;;;;;;;;16.60;99.90;;;;;;5032481;28;19917;-85
2023/07/23 11:21:33;;;;;;;;;;;16.60;99.90;;;;;;5047814;28;20062;-84
2023/07/23 11:23:59;;;;;;;;;;;16.60;99.90;;;;;;5034377;28;19920;-86
2023/07/23 11:26:24;;;;;;;;;;;16.60;99.90;;;;;;5032367;28;19952;-83
2023/07/23 11:28:51;;;;;;;;;;;16.70;99.90;;;;;;5043152;28;19924;-84
2023/07/23 11:31:17;;;;;;;;;;;16.70;99.90;;;;;;5032192;28;19913;-84
2023/07/23 11:33:42;;;;;;;;;;;16.70;99.90;;;;;;5032700;28;20425;-86
2023/07/23 11:36:09;;;;;;;;;;;16.80;99.90;;;;;;5048693;28;19925;-85
2023/07/23 11:38:34;;;;;;;;;;;16.90;99.90;;;;;;5039021;28;19921;-84
2023/07/23 11:41:00;;;;;;;;;;;17.10;99.90;;;;;;5030027;28;19920;-85
2023/07/23 11:43:26;;;;;;;;;;;17.30;99.90;;;;;;5030267;28;20004;-86
2023/07/23 11:45:51;;;;;;;;;;;17.50;99.90;;;;;;5029858;28;19923;-85
2023/07/23 11:48:18;;;;;;;;;;;17.60;99.90;;;;;;5031320;28;19925;-85
2023/07/23 11:50:44;;;;;;;;;;;17.60;99.90;;;;;;5031284;28;19995;-84
2023/07/23 11:53:11;;;;;;;;;;;17.70;99.90;;;;;;5047374;28;19929;-85
2023/07/23 11:55:36;;;;;;;;;;;17.80;99.90;;;;;;5031951;28;19921;-89
2023/07/23 11:58:02;;;;;;;;;;;17.90;99.90;;;;;;5039577;28;19917;-86
2023/07/23 12:00:35;;;;;;;;;;;18.00;99.90;;;;;;5031666;28;20086;-85
2023/07/23 12:03:05;;;;;;;;;;;18.30;99.90;;;;;;5047210;28;19924;-86
2023/07/23 12:05:31;;;;;;;;;;;18.50;99.90;;;;;;5036008;28;20675;-85
2023/07/23 12:07:56;;;;;;;;;;;18.80;99.90;;;;;;5037907;28;19963;-86
2023/07/23 12:10:24;;;;;;;;;;;18.80;99.90;;;;;;5030737;28;19967;-86
2023/07/23 12:12:50;;;;;;;;;;;18.80;99.90;;;;;;5045558;28;19964;-85
2023/07/23 12:15:16;;;;;;;;;;;18.80;99.90;;;;;;5030350;28;19925;-83
2023/07/23 12:17:42;;;;;;;;;;;18.80;99.90;;;;;;5046600;28;19986;-86
2023/07/23 12:20:09;;;;;;;;;;;18.80;99.90;;;;;;5031128;28;19990;-85
2023/07/23 12:22:51;;;;;;;;;;;18.80;99.90;;;;;;5049232;28;19921;-86
2023/07/23 12:25:16;;;;;;;;;;;18.80;99.90;;;;;;5034595;28;19975;-86
2023/07/23 12:27:42;;;;;;;;;;;18.80;99.90;;;;;;5050941;28;19925;-86
2023/07/23 12:30:08;;;;;;;;;;;18.80;99.90;;;;;;5045460;28;19959;-87
2023/07/23 12:32:36;;;;;;;;;;;18.90;99.90;;;;;;5036476;28;19921;-86
2023/07/23 12:35:02;;;;;;;;;;;19.00;99.90;;;;;;5036137;28;19917;-87
2023/07/23 12:37:28;;;;;;;;;;;19.30;99.90;;;;;;5040628;28;19924;-86
2023/07/23 12:39:54;;;;;;;;;;;19.50;99.90;;;;;;5034202;28;20489;-88
2023/07/23 12:42:20;;;;;;;;;;;19.60;99.90;;;;;;5036140;28;19917;-86
2023/07/23 12:44:45;;;;;;;;;;;19.60;99.90;;;;;;5035731;28;19924;-86
2023/07/23 12:47:11;;;;;;;;;;;19.50;99.90;;;;;;5031875;28;19988;-88
2023/07/23 12:49:36;;;;;;;;;;;19.40;99.90;;;;;;5050119;28;19933;-88
2023/07/23 12:52:03;;;;;;;;;;;19.30;99.90;;;;;;5036097;28;19952;-86
2023/07/23 12:54:29;;;;;;;;;;;19.30;99.90;;;;;;5039454;28;19936;-88
2023/07/23 12:56:55;;;;;;;;;;;19.50;99.90;;;;;;5043714;28;20458;-87
2023/07/23 12:59:21;;;;;;;;;;;19.80;99.90;;;;;;5034888;28;20405;-88
2023/07/23 13:01:47;;;;;;;;;;;20.40;99.90;;;;;;5034246;28;20513;-88
2023/07/23 13:04:12;;;;;;;;;;;21.20;99.90;;;;;;5034946;28;19924;-88
2023/07/23 13:06:38;;;;;;;;;;;21.50;99.90;;;;;;5049600;28;19917;-89
2023/07/23 13:09:04;;;;;;;;;;;21.60;99.90;;;;;;5032918;28;19921;-87
2023/07/23 13:11:29;;;;;;;;;;;21.50;99.90;;;;;;5033663;28;20483;-88
2023/07/23 13:13:55;;;;;;;;;;;21.30;99.90;;;;;;5034238;28;19920;-88
2023/07/23 13:16:20;;;;;;;;;;;21.40;99.90;;;;;;5033784;28;19917;-89
2023/07/23 13:18:46;;;;;;;;;;;21.20;99.90;;;;;;5044403;28;20279;-87
2023/07/23 13:21:11;;;;;;;;;;;21.20;99.90;;;;;;5033071;28;20312;-88
2023/07/23 13:23:37;;;;;;;;;;;21.40;99.90;;;;;;5035525;28;20027;-89
2023/07/23 13:26:03;;;;;;;;;;;21.70;99.90;;;;;;5035062;28;19975;-87
2023/07/23 13:28:28;;;;;;;;;;;22.20;99.90;;;;;;5033014;28;20593;-87
2023/07/23 13:30:55;;;;;;;;;;;22.60;99.90;;;;;;5034470;28;19928;-88
2023/07/23 13:33:21;;;;;;;;;;;22.50;99.90;;;;;;5035029;28;19924;-86
2023/07/23 13:35:53;;;;;;;;;;;22.30;99.90;;;;;;5035226;28;19916;-89
2023/07/23 13:38:22;;;;;;;;;;;22.00;99.90;;;;;;5053444;28;19943;-89
2023/07/23 13:40:47;;;;;;;;;;;21.70;99.90;;;;;;5034405;28;19917;-88
2023/07/23 13:43:13;;;;;;;;;;;21.60;99.90;;;;;;5032749;28;19921;-87
2023/07/23 13:45:38;;;;;;;;;;;21.50;99.90;;;;;;5033639;28;19949;-85
2023/07/23 13:48:04;;;;;;;;;;;21.50;99.90;;;;;;5040766;28;19928;-86
2023/07/23 13:50:30;;;;;;;;;;;21.60;99.90;;;;;;5047635;28;19917;-87
2023/07/23 13:52:55;;;;;;;;;;;21.50;99.90;;;;;;5034311;28;19920;-85
2023/07/23 13:55:21;;;;;;;;;;;22.00;99.90;;;;;;5033600;28;19925;-88
2023/07/23 13:57:46;;;;;;;;;;;22.70;99.90;;;;;;5050071;28;19959;-87
2023/07/23 14:00:12;;;;;;;;;;;23.50;99.90;;;;;;5033065;28;20782;-85
2023/07/23 14:02:42;;;;;;;;;;;23.80;99.90;;;;;;5048831;28;20056;-87
2023/07/23 14:05:11;;;;;;;;;;;24.00;99.90;;;;;;5050800;28;20418;-87
2023/07/23 14:07:37;;;;;;;;;;;23.70;99.90;;;;;;5037917;28;19917;-87
2023/07/23 14:10:02;;;;;;;;;;;23.50;99.90;;;;;;5039123;28;19924;-86